パリ/シャルル・ド・ゴール の空港の天気 - METARとTAF

シャルル・ド・ゴール国際空港(パリ) ( LFPG / CDG ) - フランス Paris
飛行場実況気象(Metar)
観測時間10/16 09:30 CEST (10/16 07:30 UTC)
風向・風速南 9m/s
視程10km以上
天気現象弱い雨
全天の8割程度の雲 雲底高度 430m
全天の4割程度の雲 雲底高度 670m
気温14℃
湿度88%
気圧1009hPa
METARLFPG 160730Z 18017KT 9999 -RA BKN014 SCT022 14/12 Q1009 NOSIG
過去の天気等 Google飛行場航空写真 Wunderground天気予報

過去48時間のMETAR

飛行場予報(TAF)
発表時間: 10/16 07:00 CEST (10/16 05:00 UTC)
予報対象時間: 16日8時 CEST ~ 17日14時 CEST
風向・風速南南西 8m/s 瞬間風速 13m/s
視程10km以上
少しの雲 雲底高度 180m
全天の8割程度の雲 雲底高度 610m
16日8時 CEST ~ 16日12時 CEST に 確率 30% で一時的に
視程4000m
天気現象弱い雨
全天の8割程度の雲 雲底高度 340m
16日13時 CEST ~ 16日15時 CEST に徐々に
全天の8割程度の雲 雲底高度 370m
16日13時 CEST ~ 17日12時 CEST に一時的に
視程3000m
天気現象
全天の8割程度の雲 雲底高度 180m
16日23時 CEST ~ 17日2時 CEST に徐々に
風向・風速南南西 5m/s
17日2時 CEST ~ 17日6時 CEST に 確率 30% で一時的に
風向・風速不定 3m/s
17日11時 CEST ~ 17日14時 CEST に徐々に
全天の4割程度の雲 雲底高度 370m
全天の8割程度の雲 雲底高度 610m
17日13時 CEST ~ 17日14時 CEST に 確率 30% で一時的に
風向・風速南 8m/s 瞬間風速 13m/s
TAF LFPG 160500Z 1606/1712 20015G25KT 9999 FEW006 BKN020 TX16/1712Z TN13/1606Z
PROB30 TEMPO 1606/1610 4000 -RA BKN011
BECMG 1611/1613 BKN012
TEMPO 1611/1710 3000 RA BKN006
BECMG 1621/1624 21010KT
PROB30 TEMPO 1700/1704 VRB05KT
BECMG 1709/1712 SCT012 BKN020
PROB30 TEMPO 1711/1712 19015G25KT